Time;durP1;ratioP1;P1;durP2;ratioP2;P2;SDS_P1;SDS_P2;PMS_P1;PMS_P2;Temp;Humidity;BMP_temperature;BMP_pressure;BME280_temperature;BME280_humidity;BME280_pressure;Samples;Min_cycle;Max_cycle;Signal;HPM_P1;HPM_P2
2021/07/13 00:00:38;;;;;;;6.93;4.32;;;28.60;71.50;;;;;;5032510;28;20499;-59
2021/07/13 00:03:07;;;;;;;8.32;4.28;;;28.50;72.00;;;;;;5032616;28;20047;-60
2021/07/13 00:05:37;;;;;;;8.63;4.10;;;28.40;72.20;;;;;;5030735;28;20072;-59
2021/07/13 00:08:05;;;;;;;9.90;4.93;;;28.40;72.50;;;;;;5032575;28;20419;-59
2021/07/13 00:10:41;;;;;;;6.45;5.10;;;28.30;72.80;;;;;;5032961;28;20122;-60
2021/07/13 00:13:09;;;;;;;7.53;4.43;;;28.30;73.10;;;;;;5032150;28;20042;-60
2021/07/13 00:15:42;;;;;;;8.98;4.32;;;28.30;73.00;;;;;;5031064;28;20044;-59
2021/07/13 00:18:11;;;;;;;6.35;4.45;;;28.30;73.10;;;;;;5031834;28;20045;-59
2021/07/13 00:20:40;;;;;;;8.63;4.97;;;28.30;73.10;;;;;;5031054;28;20041;-59
2021/07/13 00:23:07;;;;;;;7.20;4.88;;;28.30;73.20;;;;;;5032395;28;20046;-59
2021/07/13 00:25:35;;;;;;;6.47;4.53;;;28.40;73.20;;;;;;5032579;28;20498;-59
2021/07/13 00:28:04;;;;;;;6.28;4.10;;;28.30;73.10;;;;;;4998660;28;20046;-59
2021/07/13 00:30:32;;;;;;;5.20;4.00;;;28.40;73.00;;;;;;5030780;28;20119;-59
2021/07/13 00:32:59;;;;;;;6.63;4.28;;;28.40;72.90;;;;;;5032341;28;20045;-59
2021/07/13 00:35:27;;;;;;;7.90;4.75;;;28.40;72.90;;;;;;5031807;28;20046;-59
2021/07/13 00:37:55;;;;;;;6.88;4.03;;;28.30;73.00;;;;;;5032253;28;20042;-59
2021/07/13 00:40:23;;;;;;;7.35;4.00;;;28.30;73.30;;;;;;5032745;28;20084;-60
2021/07/13 00:42:53;;;;;;;5.80;3.83;;;28.20;73.70;;;;;;5032105;28;20103;-59
2021/07/13 00:45:23;;;;;;;6.40;4.18;;;28.10;74.30;;;;;;5031646;28;20061;-59
2021/07/13 00:47:52;;;;;;;10.77;4.32;;;28.00;74.90;;;;;;5032550;28;20128;-59
2021/07/13 00:50:22;;;;;;;4.50;3.10;;;28.00;75.30;;;;;;5035852;28;20061;-59
2021/07/13 00:52:50;;;;;;;5.20;3.58;;;28.00;75.40;;;;;;5035872;28;20068;-59
2021/07/13 00:55:19;;;;;;;8.38;4.22;;;28.00;75.50;;;;;;5036385;28;20045;-60
2021/07/13 00:57:46;;;;;;;8.13;3.78;;;28.00;75.50;;;;;;5035585;28;20132;-59
2021/07/13 01:00:17;;;;;;;11.10;4.13;;;28.00;75.40;;;;;;5013632;28;20034;-60
2021/07/13 01:02:49;;;;;;;6.65;3.42;;;28.00;75.40;;;;;;5031863;28;20099;-60
2021/07/13 01:05:23;;;;;;;6.95;4.05;;;28.00;75.30;;;;;;5035502;28;20100;-59
2021/07/13 01:07:55;;;;;;;4.97;3.67;;;28.10;75.30;;;;;;5034046;28;20438;-59
2021/07/13 01:11:01;;;;;;;6.80;4.30;;;28.10;75.20;;;;;;5024936;28;20063;-59
2021/07/13 01:13:35;;;;;;;4.78;3.40;;;28.10;75.20;;;;;;5033882;28;20053;-59
2021/07/13 01:16:31;;;;;;;9.35;4.05;;;28.10;75.00;;;;;;5035252;28;20041;-59
2021/07/13 01:19:07;;;;;;;5.95;3.55;;;28.10;75.10;;;;;;5035168;28;20045;-59
2021/07/13 01:21:41;;;;;;;7.07;3.80;;;28.10;75.00;;;;;;5034845;28;20056;-59
2021/07/13 01:24:21;;;;;;;6.63;3.28;;;28.10;74.80;;;;;;5035246;28;20049;-59
2021/07/13 01:27:14;;;;;;;7.97;4.00;;;28.10;74.60;;;;;;5034949;28;20046;-59
2021/07/13 01:29:45;;;;;;;5.07;4.05;;;28.20;74.50;;;;;;5034351;28;20049;-59
2021/07/13 01:32:26;;;;;;;7.78;4.28;;;28.20;74.40;;;;;;5018778;28;20530;-59
2021/07/13 01:35:01;;;;;;;6.72;3.90;;;28.20;74.40;;;;;;5034731;28;20534;-59
2021/07/13 01:37:30;;;;;;;7.00;3.92;;;28.20;74.30;;;;;;5033399;28;20038;-59
2021/07/13 01:40:00;;;;;;;5.53;4.30;;;28.20;74.30;;;;;;5033409;28;20092;-59
2021/07/13 01:42:35;;;;;;;7.53;3.92;;;28.20;74.30;;;;;;5034836;28;20107;-59
2021/07/13 01:45:04;;;;;;;7.43;4.53;;;28.20;74.30;;;;;;5034487;28;20061;-59
2021/07/13 01:47:35;;;;;;;5.18;3.53;;;28.20;74.40;;;;;;5034470;28;20041;-59
2021/07/13 01:50:06;;;;;;;6.18;3.83;;;28.20;74.60;;;;;;5034442;28;20514;-59
2021/07/13 01:52:35;;;;;;;5.95;3.60;;;28.10;74.60;;;;;;5034956;28;20526;-59
2021/07/13 01:55:05;;;;;;;6.30;4.50;;;28.10;74.70;;;;;;5034423;28;20507;-59
2021/07/13 01:57:33;;;;;;;6.25;3.72;;;28.10;74.70;;;;;;5034681;28;20048;-59
2021/07/13 02:00:05;;;;;;;6.90;4.20;;;28.10;74.70;;;;;;5034399;28;20076;-59
2021/07/13 02:02:39;;;;;;;7.05;4.05;;;28.10;74.80;;;;;;5034474;28;20041;-59
2021/07/13 02:05:09;;;;;;;8.93;4.57;;;28.00;74.80;;;;;;5034106;28;20045;-59
2021/07/13 02:07:41;;;;;;;7.82;4.65;;;28.00;74.80;;;;;;5026294;28;20073;-59
2021/07/13 02:10:10;;;;;;;8.63;4.50;;;27.90;75.00;;;;;;5034072;28;20049;-59
2021/07/13 02:12:39;;;;;;;7.18;4.30;;;27.90;74.90;;;;;;5032920;28;20053;-59
2021/07/13 02:15:07;;;;;;;9.70;4.05;;;27.90;74.90;;;;;;5034142;28;20131;-60
2021/07/13 02:17:35;;;;;;;9.57;4.45;;;27.80;74.80;;;;;;5033901;28;20037;-59
2021/07/13 02:20:10;;;;;;;9.07;6.03;;;27.80;75.00;;;;;;5032640;28;20120;-59
2021/07/13 02:22:39;;;;;;;9.77;5.03;;;27.80;75.10;;;;;;5026424;28;20056;-59
2021/07/13 02:25:09;;;;;;;7.13;4.90;;;27.90;75.20;;;;;;5034148;28;20124;-59
2021/07/13 02:28:01;;;;;;;9.45;6.72;;;27.90;75.10;;;;;;5033913;28;20095;-59
2021/07/13 02:30:34;;;;;;;11.02;6.57;;;27.90;74.60;;;;;;5024783;28;20072;-59
2021/07/13 02:33:07;;;;;;;11.70;7.22;;;27.80;74.60;;;;;;5032380;28;20061;-59
2021/07/13 02:35:43;;;;;;;12.80;7.53;;;27.80;74.80;;;;;;5032186;28;20368;-59
2021/07/13 02:38:12;;;;;;;13.18;6.80;;;27.80;74.90;;;;;;5015997;28;20096;-59
2021/07/13 02:40:40;;;;;;;11.95;6.57;;;27.80;74.80;;;;;;5033947;28;20453;-58
2021/07/13 02:43:08;;;;;;;11.35;6.47;;;27.70;74.90;;;;;;5032829;28;20073;-59
2021/07/13 02:45:37;;;;;;;7.95;6.13;;;27.60;75.00;;;;;;5032835;28;20435;-59
2021/07/13 02:48:06;;;;;;;9.75;6.05;;;27.40;75.50;;;;;;5033327;28;20067;-59
2021/07/13 02:50:34;;;;;;;9.55;5.63;;;27.40;75.80;;;;;;5033348;28;20554;-59
2021/07/13 02:53:03;;;;;;;6.32;4.80;;;27.30;75.80;;;;;;5033168;28;20061;-59
2021/07/13 02:55:32;;;;;;;7.32;4.30;;;27.30;76.00;;;;;;5033826;28;20060;-59
2021/07/13 02:58:02;;;;;;;6.28;4.50;;;27.30;76.00;;;;;;5032197;28;20045;-59
2021/07/13 03:00:32;;;;;;;7.03;4.65;;;27.20;76.00;;;;;;5033459;28;20052;-59
2021/07/13 03:03:01;;;;;;;9.18;4.90;;;27.20;76.10;;;;;;5033311;28;20045;-59
2021/07/13 03:05:29;;;;;;;8.40;4.45;;;27.30;76.20;;;;;;5031946;28;20047;-59
2021/07/13 03:07:58;;;;;;;9.25;4.13;;;27.20;76.20;;;;;;5015573;28;20060;-59
2021/07/13 03:10:27;;;;;;;7.93;3.88;;;27.20;76.30;;;;;;5032156;28;20461;-59
2021/07/13 03:12:55;;;;;;;6.22;4.53;;;27.20;76.50;;;;;;5032754;28;20045;-59
2021/07/13 03:15:27;;;;;;;14.07;5.25;;;27.20;76.60;;;;;;5033220;28;20053;-59
2021/07/13 03:17:55;;;;;;;7.97;4.10;;;27.20;77.00;;;;;;5031954;28;20041;-59
2021/07/13 03:20:24;;;;;;;10.80;4.40;;;27.20;77.20;;;;;;5032974;28;20037;-59
2021/07/13 03:22:54;;;;;;;9.73;4.35;;;27.20;77.20;;;;;;5032701;28;20053;-59
2021/07/13 03:25:41;;;;;;;9.00;4.35;;;27.30;77.50;;;;;;5028197;28;20048;-59
2021/07/13 03:28:10;;;;;;;8.25;4.63;;;27.30;77.80;;;;;;5032566;28;20099;-59
2021/07/13 03:30:40;;;;;;;10.45;4.80;;;27.30;78.10;;;;;;5032889;28;20128;-59
2021/07/13 03:33:10;;;;;;;8.18;4.38;;;27.40;78.90;;;;;;5031314;28;20045;-59
2021/07/13 03:35:39;;;;;;;7.80;4.85;;;27.40;79.00;;;;;;5032345;28;20041;-59
2021/07/13 03:38:07;;;;;;;6.45;3.95;;;27.50;79.40;;;;;;5032934;28;20136;-59
2021/07/13 03:40:35;;;;;;;9.63;4.72;;;27.40;79.20;;;;;;5033380;28;20041;-59
2021/07/13 03:43:04;;;;;;;8.02;4.93;;;27.40;79.60;;;;;;5032803;28;20508;-59
2021/07/13 03:45:32;;;;;;;8.27;5.00;;;27.40;79.90;;;;;;5032197;28;20511;-59
2021/07/13 03:48:00;;;;;;;9.18;5.35;;;27.40;79.20;;;;;;5031183;28;20151;-59
2021/07/13 03:50:33;;;;;;;10.90;6.22;;;27.30;78.50;;;;;;5032511;28;20050;-59
2021/07/13 03:53:02;;;;;;;7.75;4.90;;;27.30;78.40;;;;;;5032647;28;20045;-59
2021/07/13 03:55:30;;;;;;;7.18;4.43;;;27.20;79.00;;;;;;5031971;28;20077;-59
2021/07/13 03:57:58;;;;;;;7.03;4.60;;;27.20;80.30;;;;;;5031111;28;20042;-59
2021/07/13 04:00:27;;;;;;;9.00;4.72;;;27.20;80.90;;;;;;5032301;28;20099;-59
2021/07/13 04:02:57;;;;;;;8.55;4.28;;;27.10;80.60;;;;;;5014761;28;20451;-59
2021/07/13 04:05:25;;;;;;;9.07;5.13;;;27.00;80.50;;;;;;5031103;28;20068;-59
2021/07/13 04:07:53;;;;;;;5.82;4.28;;;26.90;80.20;;;;;;5032389;28;20115;-59
2021/07/13 04:10:20;;;;;;;8.02;4.80;;;27.00;80.00;;;;;;5028670;28;20569;-59
2021/07/13 04:12:48;;;;;;;5.95;3.88;;;27.00;79.60;;;;;;5032285;28;20513;-59
2021/07/13 04:15:16;;;;;;;6.88;4.40;;;27.00;79.10;;;;;;5014589;28;20051;-59
2021/07/13 04:17:43;;;;;;;6.57;4.43;;;27.00;78.10;;;;;;5031050;28;20045;-59
2021/07/13 04:20:11;;;;;;;7.80;3.60;;;26.90;77.70;;;;;;5032395;28;20045;-59
2021/07/13 04:22:42;;;;;;;7.60;4.32;;;27.00;77.70;;;;;;5034886;28;20049;-58
2021/07/13 04:25:11;;;;;;;7.95;5.13;;;27.00;77.40;;;;;;5035339;28;20152;-59
2021/07/13 04:27:41;;;;;;;5.75;4.00;;;27.00;77.30;;;;;;5036147;28;20041;-59
2021/07/13 04:30:10;;;;;;;7.85;3.88;;;27.00;77.30;;;;;;5035941;28;20115;-59
2021/07/13 04:32:38;;;;;;;6.55;3.90;;;26.90;77.90;;;;;;5036157;28;20046;-59
2021/07/13 04:35:07;;;;;;;8.13;4.43;;;26.70;77.50;;;;;;5035863;28;20065;-59
2021/07/13 04:37:35;;;;;;;6.50;3.83;;;26.80;77.70;;;;;;5035233;28;20622;-59
2021/07/13 04:40:04;;;;;;;7.18;4.13;;;26.50;78.10;;;;;;5034612;28;20037;-59
2021/07/13 04:42:32;;;;;;;6.25;3.63;;;26.70;78.40;;;;;;5035804;28;20099;-59
2021/07/13 04:45:00;;;;;;;4.38;3.58;;;26.90;78.10;;;;;;5034473;28;20059;-59
2021/07/13 04:47:27;;;;;;;7.07;3.92;;;27.20;77.90;;;;;;5034913;28;20045;-59
2021/07/13 04:49:55;;;;;;;7.63;4.30;;;27.30;77.90;;;;;;5035867;28;20053;-59
2021/07/13 04:52:22;;;;;;;10.40;3.65;;;27.50;77.50;;;;;;5032396;28;20054;-59
2021/07/13 04:54:50;;;;;;;6.07;4.00;;;27.70;77.20;;;;;;5035678;28;20046;-59
2021/07/13 04:57:18;;;;;;;8.77;4.45;;;27.90;76.60;;;;;;5035770;28;20037;-59
2021/07/13 04:59:45;;;;;;;6.25;3.35;;;28.10;76.40;;;;;;5035219;28;20065;-59
2021/07/13 05:02:15;;;;;;;6.63;4.13;;;28.30;76.00;;;;;;5035545;28;20072;-59
2021/07/13 05:04:42;;;;;;;7.75;4.10;;;28.40;75.80;;;;;;5035697;28;20045;-59
2021/07/13 05:07:10;;;;;;;7.35;3.33;;;28.40;75.70;;;;;;5035180;28;20069;-59
2021/07/13 05:09:39;;;;;;;8.32;4.47;;;28.50;76.00;;;;;;5035338;28;20052;-56
2021/07/13 05:12:06;;;;;;;7.13;3.67;;;28.60;75.60;;;;;;5035413;28;20049;-56
2021/07/13 05:14:35;;;;;;;7.68;4.07;;;28.80;75.50;;;;;;5035530;28;20040;-56
2021/07/13 05:17:04;;;;;;;6.22;4.30;;;28.80;75.20;;;;;;5035160;28;20569;-58
2021/07/13 05:19:33;;;;;;;7.88;3.55;;;28.80;75.10;;;;;;5035708;28;20045;-59
2021/07/13 05:22:03;;;;;;;7.57;3.78;;;28.80;75.20;;;;;;5033708;28;20041;-60
2021/07/13 05:24:30;;;;;;;9.57;4.60;;;28.60;75.10;;;;;;5035040;28;20156;-59
2021/07/13 05:26:58;;;;;;;15.55;3.80;;;28.80;75.10;;;;;;5033921;28;20045;-59
2021/07/13 05:29:26;;;;;;;10.13;3.72;;;28.80;73.60;;;;;;5035155;28;20574;-59
2021/07/13 05:31:54;;;;;;;12.27;4.47;;;28.90;73.60;;;;;;5033746;28;20037;-59
2021/07/13 05:34:21;;;;;;;10.45;4.82;;;28.70;73.80;;;;;;5013157;28;20042;-60
2021/07/13 05:36:49;;;;;;;6.75;2.78;;;28.80;74.10;;;;;;5034957;28;20068;-60
2021/07/13 05:39:17;;;;;;;6.47;3.08;;;28.90;73.70;;;;;;5033689;28;20070;-60
2021/07/13 05:41:44;;;;;;;7.25;3.40;;;29.00;74.30;;;;;;5017216;28;20128;-60
2021/07/13 05:44:12;;;;;;;13.07;4.47;;;28.80;74.60;;;;;;5033451;28;20030;-59
2021/07/13 05:46:40;;;;;;;10.45;3.85;;;29.00;74.70;;;;;;5035170;28;20378;-59
2021/07/13 05:49:07;;;;;;;5.93;3.47;;;29.00;75.00;;;;;;5033639;28;20618;-60
2021/07/13 05:51:35;;;;;;;9.48;3.22;;;29.20;74.70;;;;;;5034128;28;20080;-59
2021/07/13 05:54:03;;;;;;;7.90;3.88;;;29.20;74.70;;;;;;5034332;28;20522;-59
2021/07/13 05:56:30;;;;;;;13.02;4.65;;;29.40;74.30;;;;;;5034677;28;20496;-59
2021/07/13 05:58:58;;;;;;;10.93;3.85;;;29.40;73.30;;;;;;5034537;28;20045;-59
2021/07/13 06:01:26;;;;;;;9.10;3.63;;;29.60;72.90;;;;;;5035012;28;20042;-60
2021/07/13 06:03:54;;;;;;;10.30;4.07;;;29.70;72.30;;;;;;5034353;28;20048;-59
2021/07/13 06:06:22;;;;;;;8.35;3.60;;;29.90;72.00;;;;;;5034578;28;20480;-58
2021/07/13 06:08:49;;;;;;;7.35;3.30;;;30.10;71.70;;;;;;5034256;28;20133;-57
2021/07/13 06:11:17;;;;;;;6.38;3.55;;;30.40;71.40;;;;;;5033279;28;20045;-57
2021/07/13 06:13:45;;;;;;;5.32;3.55;;;30.60;71.10;;;;;;5032908;28;20041;-56
2021/07/13 06:16:12;;;;;;;5.95;2.60;;;30.70;70.60;;;;;;5032478;28;20046;-57
2021/07/13 06:18:40;;;;;;;8.93;2.88;;;30.90;70.10;;;;;;5032983;28;20044;-57
2021/07/13 06:21:09;;;;;;;5.88;3.53;;;31.10;69.90;;;;;;5033732;28;20095;-56
2021/07/13 06:23:37;;;;;;;7.85;4.22;;;31.10;70.10;;;;;;5016399;28;20116;-56
2021/07/13 06:26:05;;;;;;;6.35;3.80;;;31.30;70.10;;;;;;5032802;28;20045;-57
2021/07/13 06:28:32;;;;;;;9.00;3.75;;;31.30;70.00;;;;;;5033484;28;20128;-57
2021/07/13 06:31:01;;;;;;;6.60;2.97;;;31.20;69.90;;;;;;5032600;28;20084;-57
2021/07/13 06:33:28;;;;;;;5.72;3.20;;;31.30;70.30;;;;;;5034000;28;20052;-57
2021/07/13 06:35:56;;;;;;;5.20;3.08;;;31.50;70.20;;;;;;5032258;28;20057;-57
2021/07/13 06:38:24;;;;;;;9.00;2.88;;;31.50;69.60;;;;;;5033620;28;20049;-57
2021/07/13 06:40:52;;;;;;;4.30;2.65;;;31.60;68.30;;;;;;5032554;28;20041;-57
2021/07/13 06:43:19;;;;;;;5.38;2.60;;;31.60;68.10;;;;;;5034119;28;20407;-57
2021/07/13 06:45:49;;;;;;;6.38;3.00;;;31.60;67.70;;;;;;5031023;28;20083;-57
2021/07/13 06:48:16;;;;;;;5.78;3.10;;;31.70;66.30;;;;;;5033533;28;20550;-59
2021/07/13 06:50:44;;;;;;;9.38;3.45;;;32.10;66.10;;;;;;5033189;28;20045;-58
2021/07/13 06:53:12;;;;;;;6.85;3.15;;;32.10;65.60;;;;;;5032323;28;20041;-59
2021/07/13 06:55:39;;;;;;;8.20;2.85;;;32.40;65.50;;;;;;5033566;28;20590;-57
2021/07/13 06:58:07;;;;;;;5.18;2.97;;;32.50;64.90;;;;;;5016076;28;20045;-59
2021/07/13 07:00:35;;;;;;;5.15;2.60;;;32.30;65.40;;;;;;5033537;28;20049;-58
2021/07/13 07:03:03;;;;;;;9.90;3.95;;;32.10;65.90;;;;;;5031977;28;20607;-58
2021/07/13 07:05:31;;;;;;;4.82;2.63;;;32.10;66.30;;;;;;5032886;28;20155;-58
2021/07/13 07:07:58;;;;;;;5.68;2.80;;;32.20;65.70;;;;;;5033315;28;20499;-58
2021/07/13 07:10:26;;;;;;;8.57;2.80;;;32.50;65.60;;;;;;5033834;28;20063;-58
2021/07/13 07:12:54;;;;;;;5.05;3.22;;;32.60;66.50;;;;;;5033370;28;20046;-58
2021/07/13 07:15:21;;;;;;;3.60;2.60;;;32.50;66.10;;;;;;5033147;28;20041;-59
2021/07/13 07:17:54;;;;;;;6.50;3.25;;;32.50;66.10;;;;;;5032670;28;20527;-58
2021/07/13 07:20:27;;;;;;;7.28;3.33;;;32.20;65.70;;;;;;5031823;28;20056;-58
2021/07/13 07:22:55;;;;;;;7.10;3.65;;;32.30;65.60;;;;;;5032900;28;20053;-59
2021/07/13 07:25:24;;;;;;;3.75;2.58;;;32.50;64.80;;;;;;5030521;28;20496;-59
2021/07/13 07:27:55;;;;;;;5.65;3.05;;;32.40;62.00;;;;;;5032642;28;20041;-58
2021/07/13 07:30:24;;;;;;;4.38;3.10;;;32.60;61.60;;;;;;5031817;28;20073;-59
2021/07/13 07:32:52;;;;;;;5.35;3.05;;;32.40;62.90;;;;;;5032614;28;20060;-58
2021/07/13 07:35:20;;;;;;;3.85;2.65;;;32.70;63.20;;;;;;5032589;28;20037;-58
2021/07/13 07:37:48;;;;;;;4.78;3.03;;;32.70;61.10;;;;;;5032467;28;20051;-58
2021/07/13 07:40:19;;;;;;;5.82;2.65;;;32.80;61.90;;;;;;5032030;28;20073;-58
2021/07/13 07:42:50;;;;;;;5.13;2.85;;;32.80;62.20;;;;;;5033124;28;20099;-59
2021/07/13 07:45:20;;;;;;;6.45;3.25;;;32.80;62.30;;;;;;5019647;28;20061;-59
2021/07/13 07:47:49;;;;;;;5.45;2.75;;;32.90;63.00;;;;;;5032613;28;20048;-59
2021/07/13 07:50:18;;;;;;;3.67;2.78;;;32.70;63.50;;;;;;5031245;28;20140;-58
2021/07/13 07:52:46;;;;;;;5.03;3.00;;;32.70;63.80;;;;;;5014472;28;20103;-57
2021/07/13 07:55:15;;;;;;;8.02;3.60;;;32.70;63.80;;;;;;5005759;28;20507;-59
2021/07/13 07:57:43;;;;;;;3.70;2.78;;;32.70;63.60;;;;;;5027514;28;20533;-59
2021/07/13 08:00:13;;;;;;;5.15;3.42;;;33.00;63.80;;;;;;5032195;28;20048;-59
2021/07/13 08:02:41;;;;;;;5.28;2.83;;;33.10;63.80;;;;;;5031410;28;20052;-58
2021/07/13 08:05:09;;;;;;;4.07;2.92;;;33.30;63.10;;;;;;5022795;28;20046;-59
2021/07/13 08:07:37;;;;;;;8.73;2.85;;;33.30;62.10;;;;;;5022785;28;20042;-58
2021/07/13 08:10:07;;;;;;;6.35;3.25;;;33.70;62.30;;;;;;5032335;28;20046;-58
2021/07/13 08:12:35;;;;;;;6.18;3.08;;;33.90;62.50;;;;;;5032410;28;20133;-59
2021/07/13 08:15:06;;;;;;;7.25;3.88;;;33.70;62.60;;;;;;5031158;28;20069;-57
2021/07/13 08:17:33;;;;;;;4.85;3.00;;;34.00;61.60;;;;;;5030835;28;20033;-58
2021/07/13 08:20:01;;;;;;;5.50;3.33;;;33.60;62.50;;;;;;5031953;28;20084;-58
2021/07/13 08:22:30;;;;;;;5.55;4.03;;;33.80;63.30;;;;;;5014746;28;20231;-58
2021/07/13 08:24:59;;;;;;;10.60;3.47;;;33.80;62.90;;;;;;5031800;28;20044;-58
2021/07/13 08:27:28;;;;;;;5.50;3.10;;;33.90;63.00;;;;;;5032132;28;20041;-58
2021/07/13 08:29:57;;;;;;;3.67;2.92;;;33.90;62.90;;;;;;5032240;28;20046;-59
2021/07/13 08:32:25;;;;;;;6.35;2.80;;;33.60;63.50;;;;;;5031808;28;20044;-59
2021/07/13 08:34:52;;;;;;;12.25;3.78;;;33.20;64.30;;;;;;5031941;28;20041;-58
2021/07/13 08:37:21;;;;;;;6.47;4.50;;;33.30;64.70;;;;;;5032197;28;20052;-59
2021/07/13 08:39:49;;;;;;;6.18;3.08;;;33.50;64.00;;;;;;5030329;28;20185;-58
2021/07/13 08:42:17;;;;;;;5.80;3.35;;;33.70;63.30;;;;;;5030871;28;20103;-58
2021/07/13 08:44:45;;;;;;;6.72;3.20;;;33.80;63.30;;;;;;5031932;28;20048;-58
2021/07/13 08:47:15;;;;;;;4.28;2.75;;;33.80;63.10;;;;;;5031821;28;20321;-58
2021/07/13 08:49:44;;;;;;;5.68;2.78;;;33.90;63.60;;;;;;5031662;28;20558;-58
2021/07/13 08:52:13;;;;;;;4.03;2.85;;;33.60;63.40;;;;;;5032085;28;20550;-59
2021/07/13 08:54:41;;;;;;;7.90;3.42;;;33.80;63.70;;;;;;5031773;28;20045;-59
2021/07/13 08:57:09;;;;;;;4.40;2.45;;;33.60;62.40;;;;;;5031838;28;20057;-58
2021/07/13 08:59:39;;;;;;;3.60;2.65;;;33.60;62.50;;;;;;5031625;28;20103;-58
2021/07/13 09:02:07;;;;;;;3.53;2.88;;;33.70;62.60;;;;;;5031635;28;20037;-58
2021/07/13 09:04:36;;;;;;;5.63;3.08;;;33.70;61.90;;;;;;5032255;28;20099;-58
2021/07/13 09:07:09;;;;;;;5.95;2.90;;;33.80;61.70;;;;;;5031627;28;20037;-59
2021/07/13 09:09:44;;;;;;;5.05;2.60;;;33.90;61.10;;;;;;5032117;28;20045;-58
2021/07/13 09:12:21;;;;;;;4.70;3.05;;;34.10;61.00;;;;;;5035255;28;20072;-58
2021/07/13 09:15:01;;;;;;;5.35;3.00;;;34.20;62.10;;;;;;5035111;28;20045;-59
2021/07/13 09:17:43;;;;;;;5.53;2.97;;;34.60;62.00;;;;;;5035097;28;20518;-59
2021/07/13 09:20:13;;;;;;;5.57;3.03;;;34.60;60.80;;;;;;5018143;28;20378;-58
2021/07/13 09:23:10;;;;;;;5.72;3.13;;;34.50;61.60;;;;;;5027540;28;20045;-57
2021/07/13 09:25:44;;;;;;;6.70;3.33;;;34.00;61.80;;;;;;5026764;28;20103;-58
2021/07/13 09:28:22;;;;;;;9.63;3.28;;;34.30;62.20;;;;;;5033711;28;20500;-59
2021/07/13 09:30:52;;;;;;;6.13;2.55;;;34.50;62.30;;;;;;5034827;28;20050;-59
2021/07/13 09:33:23;;;;;;;4.78;2.67;;;34.40;61.20;;;;;;5034705;28;20052;-59
2021/07/13 09:36:05;;;;;;;7.10;2.80;;;34.50;61.10;;;;;;5034198;28;20503;-59
2021/07/13 09:38:44;;;;;;;8.02;3.42;;;34.70;60.90;;;;;;5034639;28;20129;-59
2021/07/13 09:41:31;;;;;;;8.90;2.63;;;34.70;61.90;;;;;;5018541;28;20426;-59
2021/07/13 09:44:00;;;;;;;5.35;2.92;;;34.60;61.80;;;;;;5034629;28;20140;-58
2021/07/13 09:46:32;;;;;;;4.75;3.28;;;34.50;61.20;;;;;;5034850;28;20057;-59
2021/07/13 09:49:20;;;;;;;5.22;3.28;;;34.50;62.50;;;;;;5034658;28;20128;-60
2021/07/13 09:51:56;;;;;;;3.53;2.72;;;34.50;62.70;;;;;;5034128;28;20064;-58
2021/07/13 09:54:44;;;;;;;4.28;2.58;;;34.60;62.50;;;;;;5034560;28;20054;-59
2021/07/13 09:57:23;;;;;;;5.13;2.58;;;34.40;62.50;;;;;;5034175;28;20056;-59
2021/07/13 09:59:56;;;;;;;3.88;2.55;;;34.30;62.80;;;;;;5033979;28;20048;-58
2021/07/13 10:02:26;;;;;;;5.22;3.15;;;34.20;63.10;;;;;;5034474;28;20108;-58
2021/07/13 10:04:55;;;;;;;4.55;2.42;;;34.20;63.10;;;;;;5016471;28;20147;-58
2021/07/13 10:07:25;;;;;;;4.57;2.28;;;34.10;63.20;;;;;;5031147;28;20041;-59
2021/07/13 10:09:55;;;;;;;8.82;3.47;;;34.10;63.30;;;;;;5034022;28;20049;-59
2021/07/13 10:12:26;;;;;;;8.00;2.88;;;34.00;63.30;;;;;;5034102;28;20050;-58
2021/07/13 10:14:59;;;;;;;5.88;2.95;;;34.10;63.10;;;;;;5034068;28;20117;-59
2021/07/13 10:17:31;;;;;;;4.68;2.35;;;34.20;63.20;;;;;;5034215;28;20052;-58
2021/07/13 10:20:08;;;;;;;5.25;2.67;;;34.20;63.40;;;;;;5033844;28;20129;-58
2021/07/13 10:22:44;;;;;;;4.75;2.88;;;34.10;62.70;;;;;;5034221;28;20392;-59
2021/07/13 10:25:12;;;;;;;5.88;2.50;;;34.10;63.10;;;;;;5034143;28;20555;-59
2021/07/13 10:27:47;;;;;;;4.30;3.08;;;34.10;62.90;;;;;;5033375;28;20385;-58
2021/07/13 10:30:34;;;;;;;8.30;2.58;;;34.20;63.10;;;;;;5020781;28;20049;-59
2021/07/13 10:33:02;;;;;;;4.55;2.40;;;34.30;62.50;;;;;;5032086;28;20507;-59
2021/07/13 10:35:31;;;;;;;6.63;2.95;;;34.30;62.40;;;;;;5033196;28;20111;-58
2021/07/13 10:38:14;;;;;;;3.10;2.42;;;34.30;62.40;;;;;;5033468;28;20045;-58
2021/07/13 10:40:42;;;;;;;3.60;2.05;;;34.10;61.90;;;;;;5026682;28;20068;-58
2021/07/13 10:43:21;;;;;;;3.58;2.60;;;34.10;61.90;;;;;;5031916;28;20049;-59
2021/07/13 10:46:09;;;;;;;7.15;2.88;;;33.90;61.50;;;;;;5032894;28;20088;-59
2021/07/13 10:48:41;;;;;;;7.80;2.55;;;34.10;61.30;;;;;;5033518;28;20045;-59
2021/07/13 10:51:10;;;;;;;3.25;2.30;;;34.10;61.10;;;;;;5032124;28;20072;-59
2021/07/13 10:53:40;;;;;;;4.90;2.72;;;34.00;60.60;;;;;;5031884;28;20060;-59
2021/07/13 10:56:09;;;;;;;4.13;2.25;;;34.20;60.40;;;;;;5033281;28;20045;-58
2021/07/13 10:58:40;;;;;;;3.42;2.28;;;34.30;60.40;;;;;;5025167;28;20054;-59
2021/07/13 11:01:14;;;;;;;4.57;2.17;;;34.20;60.10;;;;;;5033218;28;20045;-59
2021/07/13 11:03:43;;;;;;;5.57;2.17;;;34.20;60.10;;;;;;5032915;28;20072;-58
2021/07/13 11:06:19;;;;;;;5.60;1.83;;;34.00;60.60;;;;;;5031421;28;20120;-58
2021/07/13 11:08:51;;;;;;;4.65;2.63;;;34.20;60.50;;;;;;5032950;28;20116;-58
2021/07/13 11:11:27;;;;;;;6.55;2.15;;;34.20;60.30;;;;;;5032728;28;20042;-58
2021/07/13 11:14:03;;;;;;;6.15;3.15;;;34.00;60.20;;;;;;5032812;28;20046;-59
2021/07/13 11:16:36;;;;;;;5.75;2.22;;;34.10;60.40;;;;;;5031973;28;20099;-58
2021/07/13 11:19:15;;;;;;;5.53;2.50;;;34.20;60.60;;;;;;5032649;28;20565;-58
2021/07/13 11:21:51;;;;;;;4.47;2.08;;;33.90;61.00;;;;;;5032402;28;20048;-58
2021/07/13 11:24:24;;;;;;;5.40;2.50;;;33.90;61.50;;;;;;5020234;28;20041;-59
2021/07/13 11:26:55;;;;;;;3.85;2.38;;;33.90;61.20;;;;;;5031494;28;20041;-59
2021/07/13 11:29:29;;;;;;;4.45;3.00;;;33.80;61.70;;;;;;5032678;28;20124;-58
2021/07/13 11:32:02;;;;;;;6.25;2.78;;;33.90;62.10;;;;;;5032300;28;20045;-58
2021/07/13 11:34:37;;;;;;;3.58;2.05;;;34.00;61.90;;;;;;5033157;28;20055;-59
2021/07/13 11:37:05;;;;;;;;;;;33.90;61.90;;;;;;5032625;28;20416;-59
2021/07/13 11:39:39;;;;;;;3.38;2.65;;;34.00;61.70;;;;;;5032300;28;20016;-59
2021/07/13 11:42:09;;;;;;;3.13;2.30;;;33.80;61.40;;;;;;5032638;28;20121;-59
2021/07/13 11:44:39;;;;;;;4.93;2.40;;;33.90;61.20;;;;;;5032096;28;20128;-59
2021/07/13 11:47:12;;;;;;;9.15;2.38;;;34.10;61.20;;;;;;5032466;28;20107;-59
2021/07/13 11:49:40;;;;;;;4.00;2.50;;;34.30;57.30;;;;;;5024904;28;20507;-59
2021/07/13 11:52:13;;;;;;;6.05;2.20;;;34.40;55.80;;;;;;5032481;28;20059;-59
2021/07/13 11:54:45;;;;;;;3.80;2.15;;;34.50;54.30;;;;;;5032361;28;20041;-60
2021/07/13 11:57:18;;;;;;;5.93;2.22;;;34.70;54.00;;;;;;5018208;28;20124;-58
2021/07/13 11:59:47;;;;;;;3.97;2.50;;;34.90;53.50;;;;;;5032195;28;20116;-57
2021/07/13 12:02:15;;;;;;;4.85;2.10;;;34.80;53.00;;;;;;5031059;28;20384;-57
2021/07/13 12:04:46;;;;;;;5.97;1.92;;;34.80;53.00;;;;;;5031185;28;20087;-58
2021/07/13 12:07:16;;;;;;;3.22;2.47;;;34.90;53.10;;;;;;5030853;28;20049;-59
2021/07/13 12:09:44;;;;;;;4.40;2.15;;;35.00;53.50;;;;;;5030736;28;20041;-58
2021/07/13 12:12:15;;;;;;;9.70;3.08;;;35.00;52.00;;;;;;5031990;28;20148;-59
2021/07/13 12:14:51;;;;;;;5.80;2.53;;;34.90;52.50;;;;;;5030832;28;20045;-59
2021/07/13 12:17:26;;;;;;;3.40;2.88;;;34.90;52.60;;;;;;5017664;28;20137;-58
2021/07/13 12:19:55;;;;;;;10.48;2.83;;;35.10;53.50;;;;;;5031889;28;20132;-59
2021/07/13 12:22:24;;;;;;;3.53;2.28;;;35.20;54.20;;;;;;5028700;28;20435;-59
2021/07/13 12:25:00;;;;;;;7.88;3.05;;;34.90;53.90;;;;;;5030849;28;20077;-59
2021/07/13 12:27:32;;;;;;;4.05;2.30;;;35.10;54.70;;;;;;5032392;28;20387;-59
2021/07/13 12:30:13;;;;;;;5.07;2.50;;;35.10;53.90;;;;;;5030902;28;20042;-58
2021/07/13 12:33:00;;;;;;;4.97;2.40;;;34.90;54.80;;;;;;5031820;28;20037;-59
2021/07/13 12:35:28;;;;;;;4.07;2.42;;;34.80;55.00;;;;;;5030977;28;20183;-59
2021/07/13 12:37:56;;;;;;;5.07;2.88;;;34.70;54.90;;;;;;5031774;28;20500;-59
2021/07/13 12:40:28;;;;;;;4.45;2.33;;;34.70;55.70;;;;;;5019039;28;20069;-59
2021/07/13 12:43:08;;;;;;;5.13;2.95;;;34.80;55.60;;;;;;5031777;28;20069;-59
2021/07/13 12:45:36;;;;;;;3.72;2.58;;;34.70;55.80;;;;;;5033330;28;20128;-58
2021/07/13 12:48:04;;;;;;;5.70;2.80;;;34.60;56.10;;;;;;5034499;28;20563;-59
2021/07/13 12:50:33;;;;;;;7.07;2.88;;;34.60;56.30;;;;;;5035827;28;20037;-59
2021/07/13 12:53:08;;;;;;;9.68;3.60;;;34.60;56.60;;;;;;5035402;28;20076;-59
2021/07/13 12:55:42;;;;;;;5.18;3.25;;;34.70;56.50;;;;;;5027237;28;20049;-58
2021/07/13 12:58:10;;;;;;;6.38;3.17;;;34.80;56.10;;;;;;5035289;28;20045;-59
2021/07/13 13:00:40;;;;;;;4.53;2.78;;;34.90;55.90;;;;;;5035471;28;20053;-59
2021/07/13 13:03:15;;;;;;;4.82;2.97;;;35.00;56.10;;;;;;5035401;28;20060;-59